Time;durP1;ratioP1;P1;durP2;ratioP2;P2;SDS_P1;SDS_P2;PMS_P1;PMS_P2;Temp;Humidity;BMP_temperature;BMP_pressure;BME280_temperature;BME280_humidity;BME280_pressure;Samples;Min_cycle;Max_cycle;Signal;HPM_P1;HPM_P2
2021/08/24 00:00:14;;;;;;;15.38;3.13;;;14.80;99.90;;;;;;5033877;28;20063;-85
2021/08/24 00:02:40;;;;;;;6.25;2.90;;;14.70;99.90;;;;;;5031729;28;20053;-87
2021/08/24 00:05:07;;;;;;;15.90;3.53;;;14.70;99.90;;;;;;5036805;28;20045;-87
2021/08/24 00:07:33;;;;;;;11.13;3.65;;;14.70;99.90;;;;;;5033203;28;20374;-86
2021/08/24 00:09:58;;;;;;;7.90;3.30;;;14.70;99.90;;;;;;5018387;28;20051;-86
2021/08/24 00:12:24;;;;;;;7.35;3.10;;;14.70;99.90;;;;;;5051028;28;20493;-87
2021/08/24 00:14:50;;;;;;;7.97;3.25;;;14.70;99.90;;;;;;5018591;28;20049;-88
2021/08/24 00:17:15;;;;;;;7.97;3.45;;;14.70;99.90;;;;;;5051899;28;20046;-86
2021/08/24 00:19:41;;;;;;;15.10;3.58;;;14.80;99.90;;;;;;5034685;28;20037;-87
2021/08/24 00:22:07;;;;;;;10.00;3.60;;;14.80;99.90;;;;;;5051779;28;20543;-87
2021/08/24 00:24:32;;;;;;;12.98;3.78;;;14.80;99.90;;;;;;5034372;28;20393;-87
2021/08/24 00:26:58;;;;;;;8.68;3.03;;;14.80;99.90;;;;;;5034947;28;20178;-88
2021/08/24 00:29:24;;;;;;;9.65;3.25;;;14.80;99.90;;;;;;5049391;28;20478;-88
2021/08/24 00:31:49;;;;;;;5.38;3.03;;;14.90;99.90;;;;;;5050585;28;20049;-89
2021/08/24 00:34:15;;;;;;;10.20;3.35;;;14.80;99.90;;;;;;5024243;28;20052;-86
2021/08/24 00:36:41;;;;;;;9.35;3.22;;;14.80;99.90;;;;;;5046589;28;20056;-86
2021/08/24 00:39:06;;;;;;;9.43;3.67;;;14.80;99.90;;;;;;5017074;28;20492;-87
2021/08/24 00:41:34;;;;;;;11.43;3.25;;;14.80;99.90;;;;;;5049432;28;20045;-87
2021/08/24 00:44:00;;;;;;;10.05;3.35;;;14.80;99.90;;;;;;5049841;28;20056;-85
2021/08/24 00:46:32;;;;;;;13.43;3.60;;;14.80;99.90;;;;;;5066790;28;20063;-88
2021/08/24 00:49:10;;;;;;;8.55;2.92;;;14.80;99.90;;;;;;5019305;28;20497;-87
2021/08/24 00:51:38;;;;;;;6.93;2.88;;;14.70;99.90;;;;;;5032848;28;20053;-85
2021/08/24 00:54:25;;;;;;;17.85;3.60;;;14.80;99.90;;;;;;5023749;28;20136;-86
2021/08/24 00:56:56;;;;;;;7.88;2.78;;;14.80;99.90;;;;;;5033211;28;20045;-85
2021/08/24 00:59:23;;;;;;;10.00;2.75;;;14.80;99.90;;;;;;5033730;28;20053;-86
2021/08/24 01:01:50;;;;;;;7.85;2.65;;;14.80;99.90;;;;;;5049648;28;20657;-87
2021/08/24 01:04:17;;;;;;;6.28;2.55;;;14.80;99.90;;;;;;5050316;28;20076;-86
2021/08/24 01:06:55;;;;;;;11.65;3.42;;;14.80;99.90;;;;;;5033340;28;20049;-87
2021/08/24 01:09:20;;;;;;;9.20;2.90;;;14.90;99.90;;;;;;5050186;28;20032;-86
2021/08/24 01:12:12;;;;;;;7.95;2.63;;;14.80;99.90;;;;;;5033326;28;20052;-86
2021/08/24 01:14:58;;;;;;;14.60;3.92;;;14.80;99.90;;;;;;5033108;28;20063;-88
2021/08/24 01:17:34;;;;;;;8.07;3.35;;;14.90;99.90;;;;;;5050388;28;20053;-86
2021/08/24 01:20:21;;;;;;;13.82;3.05;;;14.80;99.90;;;;;;5033867;28;20407;-86
2021/08/24 01:23:21;;;;;;;7.85;3.10;;;14.80;99.90;;;;;;5049238;28;20130;-87
2021/08/24 01:26:21;;;;;;;6.63;3.42;;;14.90;99.90;;;;;;5032373;28;20059;-86
2021/08/24 01:29:09;;;;;;;14.07;3.60;;;15.00;99.90;;;;;;5029515;28;20152;-85
2021/08/24 01:31:57;;;;;;;20.95;3.67;;;15.00;99.90;;;;;;5021512;28;20045;-87
2021/08/24 01:35:11;;;;;;;13.07;4.03;;;15.00;99.90;;;;;;5044003;28;20484;-87
2021/08/24 01:37:49;;;;;;;17.65;4.88;;;15.00;99.90;;;;;;5031664;28;20056;-87
2021/08/24 01:40:21;;;;;;;11.02;4.07;;;15.00;99.90;;;;;;5046051;28;20083;-86
2021/08/24 01:42:48;;;;;;;12.85;3.05;;;15.10;99.90;;;;;;5065583;28;20079;-87
2021/08/24 01:45:39;;;;;;;12.77;4.07;;;15.10;99.90;;;;;;5033287;28;20063;-87
2021/08/24 01:48:17;;;;;;;10.07;3.20;;;15.10;99.90;;;;;;5032773;28;20055;-88
2021/08/24 01:50:49;;;;;;;12.75;3.33;;;15.10;99.90;;;;;;5033197;28;20048;-87
2021/08/24 01:53:32;;;;;;;7.45;3.13;;;15.00;99.90;;;;;;5032663;28;20060;-86
2021/08/24 01:56:20;;;;;;;13.55;3.78;;;15.10;99.90;;;;;;5032910;28;20114;-87
2021/08/24 01:58:59;;;;;;;15.57;3.78;;;15.00;99.90;;;;;;5015332;28;20135;-86
2021/08/24 02:01:33;;;;;;;11.00;3.17;;;15.00;99.90;;;;;;5032422;28;20080;-86
2021/08/24 02:04:00;;;;;;;12.85;3.40;;;15.00;99.90;;;;;;5015674;28;20045;-87
2021/08/24 02:06:43;;;;;;;10.13;3.25;;;15.00;99.90;;;;;;5050107;28;20057;-87
2021/08/24 02:09:16;;;;;;;12.25;3.10;;;15.00;99.90;;;;;;5003222;28;20519;-86
2021/08/24 02:11:43;;;;;;;8.68;3.00;;;14.90;99.90;;;;;;5032984;28;20103;-88
2021/08/24 02:14:13;;;;;;;8.65;3.05;;;14.90;99.90;;;;;;5032741;28;20101;-86
2021/08/24 02:16:42;;;;;;;7.82;2.90;;;14.90;99.90;;;;;;5032198;28;20127;-87
2021/08/24 02:19:23;;;;;;;16.23;3.45;;;14.90;99.90;;;;;;5049746;28;20053;-87
2021/08/24 02:22:12;;;;;;;13.10;3.42;;;14.90;99.90;;;;;;5033475;28;20138;-88
2021/08/24 02:24:44;;;;;;;16.80;2.92;;;14.90;99.90;;;;;;5066579;28;20045;-87
2021/08/24 02:27:17;;;;;;;11.75;2.97;;;14.80;99.90;;;;;;5032513;28;20055;-87
2021/08/24 02:29:43;;;;;;;14.27;2.90;;;14.80;99.90;;;;;;5047549;28;20105;-87
2021/08/24 02:32:14;;;;;;;10.95;2.67;;;14.80;99.90;;;;;;5031945;28;20083;-86
2021/08/24 02:34:51;;;;;;;11.00;3.38;;;14.80;99.90;;;;;;5015019;28;20044;-86
2021/08/24 02:37:29;;;;;;;11.55;2.95;;;14.80;99.90;;;;;;5032086;28;20048;-86
2021/08/24 02:40:17;;;;;;;9.68;2.70;;;14.80;99.90;;;;;;5031289;28;20051;-87
2021/08/24 02:42:54;;;;;;;14.02;2.97;;;14.80;99.90;;;;;;5030967;28;20072;-85
2021/08/24 02:45:31;;;;;;;13.98;3.05;;;14.80;99.90;;;;;;5052408;28;20044;-85
2021/08/24 02:47:58;;;;;;;10.57;3.92;;;14.80;99.90;;;;;;5030924;28;20047;-86
2021/08/24 02:50:24;;;;;;;14.02;2.78;;;14.80;99.90;;;;;;5031651;28;20048;-85
2021/08/24 02:52:51;;;;;;;12.63;3.05;;;14.80;99.90;;;;;;5014097;28;20049;-86
2021/08/24 02:55:17;;;;;;;13.18;3.08;;;14.80;99.90;;;;;;5050829;28;20056;-86
2021/08/24 02:57:43;;;;;;;13.48;2.40;;;14.80;99.90;;;;;;5051339;28;20497;-86
2021/08/24 03:00:09;;;;;;;10.70;2.70;;;14.80;99.90;;;;;;5051715;28;20087;-85
2021/08/24 03:02:35;;;;;;;12.60;2.65;;;14.80;99.90;;;;;;5052265;28;20051;-86
2021/08/24 03:05:01;;;;;;;8.13;2.83;;;14.80;99.90;;;;;;5019183;28;20401;-85
2021/08/24 03:07:29;;;;;;;13.18;2.75;;;14.80;99.90;;;;;;5069410;28;20545;-86
2021/08/24 03:09:59;;;;;;;13.38;2.90;;;14.80;99.90;;;;;;5034578;28;20037;-86
2021/08/24 03:12:37;;;;;;;12.30;2.90;;;14.80;99.90;;;;;;5052459;28;20106;-87
2021/08/24 03:15:22;;;;;;;14.80;3.50;;;14.70;99.90;;;;;;5035724;28;20049;-87
2021/08/24 03:18:01;;;;;;;12.90;2.80;;;14.70;99.90;;;;;;5052306;28;20610;-87
2021/08/24 03:20:31;;;;;;;7.83;2.57;;;14.70;99.90;;;;;;5035865;28;20120;-87
2021/08/24 03:22:59;;;;;;;8.32;3.20;;;14.70;99.90;;;;;;5018906;28;20351;-86
2021/08/24 03:25:25;;;;;;;12.65;3.05;;;14.70;99.90;;;;;;5036138;28;20128;-86
2021/08/24 03:27:54;;;;;;;8.65;2.67;;;14.70;99.90;;;;;;5054236;28;20136;-86
2021/08/24 03:30:21;;;;;;;10.60;2.75;;;14.70;99.90;;;;;;5027516;28;20053;-86
2021/08/24 03:32:48;;;;;;;12.50;2.97;;;14.70;99.90;;;;;;5067634;28;20570;-87
2021/08/24 03:35:16;;;;;;;10.90;2.83;;;14.70;99.90;;;;;;5029165;28;20244;-86
2021/08/24 03:37:43;;;;;;;9.68;2.90;;;14.60;99.90;;;;;;5015379;28;20084;-90
2021/08/24 03:40:11;;;;;;;8.95;2.85;;;14.60;99.90;;;;;;5035471;28;20075;-87
2021/08/24 03:42:38;;;;;;;12.93;3.35;;;14.60;99.90;;;;;;5035889;28;20049;-87
2021/08/24 03:45:06;;;;;;;14.65;3.38;;;14.60;99.90;;;;;;5035372;28;20059;-87
2021/08/24 03:47:32;;;;;;;11.95;2.80;;;14.60;99.90;;;;;;5019058;28;20098;-87
2021/08/24 03:49:58;;;;;;;11.88;2.80;;;14.60;99.90;;;;;;5050885;28;20053;-88
2021/08/24 03:52:24;;;;;;;12.40;2.72;;;14.50;99.90;;;;;;5043814;28;20054;-86
2021/08/24 03:54:50;;;;;;;15.27;3.05;;;14.50;99.90;;;;;;5060836;28;20068;-87
2021/08/24 03:57:16;;;;;;;12.35;3.47;;;14.60;99.90;;;;;;5051015;28;20041;-87
2021/08/24 03:59:41;;;;;;;7.90;2.40;;;14.60;99.90;;;;;;5051146;28;20102;-90
2021/08/24 04:02:07;;;;;;;14.77;3.08;;;14.60;99.90;;;;;;5034170;28;20032;-87
2021/08/24 04:04:34;;;;;;;7.43;2.88;;;14.60;99.90;;;;;;5023876;28;20052;-88
2021/08/24 04:07:00;;;;;;;8.98;2.60;;;14.60;99.90;;;;;;5031090;28;20053;-86
2021/08/24 04:09:26;;;;;;;6.60;2.47;;;14.60;99.90;;;;;;5017398;28;20400;-88
2021/08/24 04:11:51;;;;;;;14.45;3.28;;;14.60;99.90;;;;;;5033827;28;20447;-88
2021/08/24 04:14:17;;;;;;;19.85;2.85;;;14.60;99.90;;;;;;5053690;28;20084;-88
2021/08/24 04:16:43;;;;;;;15.63;3.03;;;14.60;99.90;;;;;;5034308;28;20407;-89
2021/08/24 04:19:12;;;;;;;9.88;2.55;;;14.50;99.90;;;;;;5034006;28;20041;-87
2021/08/24 04:21:42;;;;;;;13.15;2.70;;;14.40;99.90;;;;;;5027668;28;20053;-89
2021/08/24 04:24:09;;;;;;;10.32;2.92;;;14.40;99.90;;;;;;5027739;28;20053;-88
2021/08/24 04:26:35;;;;;;;15.63;3.38;;;14.40;99.90;;;;;;5062037;28;20421;-88
2021/08/24 04:29:01;;;;;;;12.70;3.40;;;14.40;99.90;;;;;;5059318;28;20041;-88
2021/08/24 04:31:30;;;;;;;12.05;2.78;;;14.40;99.90;;;;;;5050086;28;20185;-88
2021/08/24 04:33:57;;;;;;;6.97;2.67;;;14.40;99.90;;;;;;5033492;28;20049;-86
2021/08/24 04:36:23;;;;;;;8.23;2.88;;;14.50;99.90;;;;;;5050586;28;20425;-86
2021/08/24 04:38:49;;;;;;;12.02;3.08;;;14.50;99.90;;;;;;5033362;28;20041;-88
2021/08/24 04:41:15;;;;;;;8.65;2.95;;;14.50;99.90;;;;;;5050552;28;20059;-87
2021/08/24 04:43:41;;;;;;;17.45;3.92;;;14.60;99.90;;;;;;5026855;28;20045;-85
2021/08/24 04:46:06;;;;;;;15.18;3.30;;;14.60;99.90;;;;;;5042477;28;20059;-85
2021/08/24 04:48:32;;;;;;;10.02;2.60;;;14.60;99.90;;;;;;5033186;28;20433;-85
2021/08/24 04:50:59;;;;;;;9.50;2.75;;;14.70;99.90;;;;;;5032780;28;20064;-86
2021/08/24 04:53:24;;;;;;;9.17;2.63;;;14.70;99.90;;;;;;4995126;28;1099153;-86
2021/08/24 04:55:52;;;;;;;9.32;2.80;;;14.70;99.90;;;;;;5017431;28;20053;-89
2021/08/24 04:58:18;;;;;;;10.82;3.22;;;14.70;99.90;;;;;;5051272;28;20056;-85
2021/08/24 05:00:44;;;;;;;10.95;2.75;;;14.80;99.90;;;;;;5034941;28;20052;-87
2021/08/24 05:03:10;;;;;;;7.63;2.22;;;14.80;99.90;;;;;;5017266;28;20128;-86
2021/08/24 05:05:36;;;;;;;8.05;2.22;;;14.90;99.90;;;;;;5017196;28;20125;-87
2021/08/24 05:08:02;;;;;;;8.77;2.63;;;15.00;99.90;;;;;;5050608;28;20045;-87
2021/08/24 05:10:28;;;;;;;11.80;2.55;;;15.00;99.90;;;;;;5035065;28;20132;-88
2021/08/24 05:12:54;;;;;;;9.70;2.20;;;15.00;99.90;;;;;;5035902;28;20512;-87
2021/08/24 05:15:20;;;;;;;10.60;2.35;;;15.10;99.90;;;;;;5051166;28;20137;-87
2021/08/24 05:17:50;;;;;;;10.15;2.75;;;15.10;99.90;;;;;;5066777;28;20087;-87
2021/08/24 05:20:17;;;;;;;11.32;2.30;;;15.10;99.90;;;;;;5034343;28;20049;-87
2021/08/24 05:22:44;;;;;;;11.50;2.40;;;15.10;99.90;;;;;;5051091;28;20053;-87
2021/08/24 05:25:12;;;;;;;8.98;2.38;;;15.10;99.90;;;;;;5050395;28;20045;-88
2021/08/24 05:27:38;;;;;;;13.05;2.35;;;15.10;99.90;;;;;;5034628;28;20045;-89
2021/08/24 05:30:07;;;;;;;8.77;2.65;;;15.10;99.90;;;;;;5032327;28;20409;-87
2021/08/24 05:32:32;;;;;;;9.02;2.60;;;15.10;99.90;;;;;;5033034;28;20049;-88
2021/08/24 05:34:58;;;;;;;9.15;2.08;;;15.10;99.90;;;;;;5015757;28;20152;-89
2021/08/24 05:37:24;;;;;;;10.15;2.80;;;15.10;99.90;;;;;;5016908;28;20048;-87
2021/08/24 05:39:50;;;;;;;8.85;2.70;;;15.10;99.90;;;;;;5049582;28;20374;-88
2021/08/24 05:42:15;;;;;;;12.50;3.03;;;15.20;99.90;;;;;;5050502;28;20045;-87
2021/08/24 05:44:41;;;;;;;10.00;2.78;;;15.20;99.90;;;;;;5034194;28;20045;-86
2021/08/24 05:47:07;;;;;;;14.45;2.85;;;15.20;99.90;;;;;;5060373;28;20087;-86
2021/08/24 05:49:34;;;;;;;15.15;2.60;;;15.20;99.90;;;;;;5043899;28;20128;-88
2021/08/24 05:52:01;;;;;;;11.13;2.40;;;15.20;99.90;;;;;;5066307;28;20084;-87
2021/08/24 05:54:27;;;;;;;10.52;2.22;;;15.20;99.90;;;;;;5032370;28;20063;-87
2021/08/24 05:56:53;;;;;;;12.20;2.72;;;15.20;99.90;;;;;;5032923;28;20059;-91
2021/08/24 05:59:18;;;;;;;17.30;3.88;;;15.30;99.90;;;;;;5032215;28;20045;-88
2021/08/24 06:01:44;;;;;;;10.43;2.38;;;15.30;99.90;;;;;;5032771;28;20469;-88
2021/08/24 06:04:10;;;;;;;10.25;2.95;;;15.30;99.90;;;;;;5049810;28;20456;-88
2021/08/24 06:06:39;;;;;;;6.78;2.30;;;15.30;99.90;;;;;;5033891;28;20076;-88
2021/08/24 06:09:08;;;;;;;8.98;2.28;;;15.30;99.90;;;;;;5016499;28;20082;-89
2021/08/24 06:11:44;;;;;;;12.13;3.22;;;15.40;99.90;;;;;;5025792;28;20049;-89
2021/08/24 06:14:11;;;;;;;7.75;2.42;;;15.40;99.90;;;;;;5049098;28;20067;-89
2021/08/24 06:16:37;;;;;;;15.50;3.42;;;15.50;99.90;;;;;;5017189;28;20048;-88
2021/08/24 06:19:06;;;;;;;14.82;2.88;;;15.50;99.90;;;;;;5047343;28;20041;-88
2021/08/24 06:21:33;;;;;;;9.85;2.60;;;15.60;99.90;;;;;;5066577;28;20106;-89
2021/08/24 06:23:58;;;;;;;6.07;1.98;;;15.50;99.90;;;;;;5049357;28;20041;-90
2021/08/24 06:26:27;;;;;;;14.10;2.25;;;15.60;99.90;;;;;;5016672;28;20053;-90
2021/08/24 06:28:53;;;;;;;6.40;2.60;;;15.70;99.90;;;;;;5049556;28;20566;-89
2021/08/24 06:31:22;;;;;;;10.32;2.10;;;15.70;99.90;;;;;;5032591;28;20044;-88
2021/08/24 06:33:48;;;;;;;11.07;3.07;;;15.80;99.90;;;;;;5049613;28;20045;-89
2021/08/24 06:36:15;;;;;;;10.40;2.15;;;15.80;99.90;;;;;;5032651;28;20056;-89
2021/08/24 06:38:44;;;;;;;8.00;2.03;;;15.90;99.90;;;;;;5049717;28;20477;-89
2021/08/24 06:41:10;;;;;;;4.60;2.20;;;15.90;99.90;;;;;;5020994;28;20051;-89
2021/08/24 06:43:37;;;;;;;10.20;2.60;;;16.00;99.90;;;;;;5024030;28;20132;-86
2021/08/24 06:46:04;;;;;;;11.45;2.65;;;16.00;99.90;;;;;;5048963;28;20045;-90
2021/08/24 06:48:30;;;;;;;6.22;2.40;;;16.00;99.90;;;;;;5015743;28;20485;-88
2021/08/24 06:50:56;;;;;;;9.23;2.75;;;16.10;99.90;;;;;;5016331;28;20106;-89
2021/08/24 06:53:22;;;;;;;5.22;2.08;;;16.10;99.90;;;;;;5047557;28;20042;-90
2021/08/24 06:55:48;;;;;;;9.05;2.00;;;16.10;99.90;;;;;;5032920;28;20146;-87
2021/08/24 06:58:14;;;;;;;9.35;1.90;;;16.20;99.90;;;;;;5032097;28;20064;-89
2021/08/24 07:00:40;;;;;;;7.47;2.17;;;16.20;99.90;;;;;;5016658;28;20455;-89
2021/08/24 07:03:07;;;;;;;7.53;1.90;;;16.20;99.90;;;;;;5032387;28;20056;-89
2021/08/24 07:05:34;;;;;;;14.15;2.17;;;16.20;99.90;;;;;;5020209;28;20076;-90
2021/08/24 07:08:00;;;;;;;15.73;2.97;;;16.30;99.90;;;;;;5016057;28;20048;-91
2021/08/24 07:10:27;;;;;;;10.13;3.15;;;16.40;99.90;;;;;;5032600;28;20135;-89
2021/08/24 07:12:53;;;;;;;11.43;3.38;;;16.40;99.90;;;;;;5018516;28;20080;-87
2021/08/24 07:15:21;;;;;;;6.10;1.80;;;16.40;99.90;;;;;;5040129;28;20471;-88
2021/08/24 07:17:50;;;;;;;8.98;2.17;;;16.40;99.90;;;;;;5049280;28;20049;-89
2021/08/24 07:20:19;;;;;;;11.90;3.15;;;16.50;99.90;;;;;;5031947;28;20037;-88
2021/08/24 07:22:45;;;;;;;5.72;2.00;;;16.50;99.90;;;;;;5032538;28;20055;-87
2021/08/24 07:25:14;;;;;;;6.60;2.05;;;16.60;99.90;;;;;;5062178;28;20103;-88
2021/08/24 07:27:40;;;;;;;4.47;1.92;;;16.60;99.90;;;;;;5031922;28;20044;-90
2021/08/24 07:30:07;;;;;;;6.93;2.30;;;16.70;99.90;;;;;;5062126;28;20045;-90
2021/08/24 07:32:33;;;;;;;6.90;2.30;;;16.70;99.90;;;;;;5032137;28;20041;-89
2021/08/24 07:35:01;;;;;;;7.15;2.63;;;16.80;99.90;;;;;;5029926;28;20054;-90
2021/08/24 07:37:26;;;;;;;8.90;2.60;;;16.90;99.90;;;;;;5031961;28;20128;-92
2021/08/24 07:39:52;;;;;;;9.57;2.17;;;17.00;99.90;;;;;;5017169;28;20155;-90
2021/08/24 07:42:18;;;;;;;8.40;2.30;;;17.00;99.90;;;;;;5063604;28;20064;-88
2021/08/24 07:44:44;;;;;;;8.98;1.75;;;17.20;99.90;;;;;;5051496;28;20109;-88
2021/08/24 07:47:10;;;;;;;9.02;1.83;;;17.20;99.90;;;;;;5001920;28;20052;-89
2021/08/24 07:49:37;;;;;;;6.70;2.00;;;17.30;99.90;;;;;;5051475;28;20382;-89
2021/08/24 07:52:08;;;;;;;7.22;2.00;;;17.30;99.90;;;;;;5051333;28;20068;-91
2021/08/24 07:54:36;;;;;;;6.40;1.58;;;17.40;99.90;;;;;;5051615;28;20079;-92
2021/08/24 07:57:02;;;;;;;17.60;2.70;;;17.40;99.90;;;;;;5036506;28;20053;-92
2021/08/24 07:59:27;;;;;;;7.18;2.25;;;17.40;99.90;;;;;;5052065;28;20041;-91
2021/08/24 08:01:54;;;;;;;5.68;2.13;;;17.40;99.90;;;;;;5019454;28;20432;-91
2021/08/24 08:04:25;;;;;;;7.55;2.08;;;17.40;99.90;;;;;;5051892;28;20146;-91
2021/08/24 08:06:51;;;;;;;12.25;2.25;;;17.50;99.90;;;;;;5052081;28;20049;-90
2021/08/24 08:09:20;;;;;;;11.82;3.08;;;17.50;99.90;;;;;;5034299;28;20037;-89
2021/08/24 08:11:47;;;;;;;6.00;2.03;;;17.50;99.90;;;;;;5026081;28;20053;-89
2021/08/24 08:14:13;;;;;;;11.23;3.30;;;17.60;99.90;;;;;;5036708;28;20041;-91
2021/08/24 08:16:39;;;;;;;6.88;2.20;;;17.70;99.90;;;;;;5052474;28;20041;-90
2021/08/24 08:19:09;;;;;;;3.83;2.15;;;17.70;99.90;;;;;;5026425;28;20491;-92
2021/08/24 08:21:37;;;;;;;5.82;2.30;;;17.80;99.90;;;;;;5035420;28;20453;-90
2021/08/24 08:24:04;;;;;;;4.68;2.03;;;17.80;99.90;;;;;;5051529;28;20064;-89
2021/08/24 08:26:31;;;;;;;8.88;2.50;;;17.70;99.90;;;;;;5034494;28;20051;-90
2021/08/24 08:28:57;;;;;;;6.47;2.15;;;17.80;99.90;;;;;;5046910;28;20033;-90
2021/08/24 08:31:26;;;;;;;10.93;2.13;;;17.80;99.90;;;;;;5025279;28;20127;-90
2021/08/24 08:33:52;;;;;;;7.47;2.53;;;17.90;99.90;;;;;;5032265;28;20115;-92
2021/08/24 08:36:18;;;;;;;7.15;2.08;;;18.00;99.90;;;;;;5035657;28;20052;-91
2021/08/24 08:38:44;;;;;;;7.70;2.10;;;18.10;99.90;;;;;;5052135;28;20485;-91
2021/08/24 08:41:45;;;;;;;4.15;1.70;;;18.10;99.90;;;;;;5053604;28;20094;-91
2021/08/24 08:44:50;;;;;;;5.53;2.40;;;18.30;99.90;;;;;;5053914;28;20490;-94
2021/08/24 08:47:34;;;;;;;5.70;1.70;;;18.40;99.90;;;;;;5041178;28;20113;-92
2021/08/24 08:50:09;;;;;;;2.40;1.40;;;18.60;99.90;;;;;;5052896;28;20045;-90
2021/08/24 08:53:19;;;;;;;7.63;2.00;;;18.60;99.90;;;;;;5051152;28;20049;-91
2021/08/24 08:59:48;;;;;;;8.00;2.00;;;18.80;99.90;;;;;;5013330;28;20106;-93
2021/08/24 09:02:35;;;;;;;7.75;1.90;;;18.90;99.90;;;;;;4983011;28;20058;-93
2021/08/24 09:05:07;;;;;;;7.40;2.20;;;19.00;99.90;;;;;;4996629;28;20058;-92
2021/08/24 09:07:46;;;;;;;9.70;2.30;;;19.00;99.90;;;;;;4995305;28;20053;-92
2021/08/24 09:10:20;;;;;;;6.65;1.80;;;19.10;99.90;;;;;;4978037;28;20494;-93
2021/08/24 09:12:52;;;;;;;5.00;1.70;;;19.10;99.90;;;;;;4978600;28;20237;-92
2021/08/24 09:15:26;;;;;;;8.73;2.45;;;19.30;99.90;;;;;;4976295;28;20111;-91
2021/08/24 09:17:52;;;;;;;3.08;1.65;;;19.60;99.90;;;;;;4973736;28;20050;-90
2021/08/24 09:20:30;;;;;;;4.03;1.88;;;19.80;99.90;;;;;;4984053;28;20045;-93
2021/08/24 09:22:56;;;;;;;3.67;1.77;;;19.90;99.90;;;;;;4994027;28;20065;-92
2021/08/24 09:25:48;;;;;;;4.22;1.80;;;20.20;99.90;;;;;;4994911;28;20522;-91
2021/08/24 09:28:23;;;;;;;4.18;2.42;;;20.30;99.90;;;;;;4997127;28;20156;-94
2021/08/24 09:30:50;;;;;;;4.00;1.98;;;20.30;99.90;;;;;;5009360;28;20054;-91
2021/08/24 09:33:17;;;;;;;7.97;2.03;;;20.30;99.90;;;;;;4994417;28;20533;-92
2021/08/24 09:35:47;;;;;;;7.40;2.70;;;20.30;99.90;;;;;;4976088;28;20046;-89
2021/08/24 09:38:13;;;;;;;7.53;1.80;;;20.30;99.90;;;;;;5026549;28;20038;-91
2021/08/24 09:40:44;;;;;;;5.50;2.15;;;20.50;99.90;;;;;;5026245;28;20500;-90
2021/08/24 09:43:38;;;;;;;7.90;1.90;;;20.70;99.90;;;;;;5034277;28;20054;-90
2021/08/24 09:46:41;;;;;;;6.57;2.00;;;20.60;99.90;;;;;;5011157;28;20096;-88
2021/08/24 09:49:31;;;;;;;7.55;2.10;;;20.70;99.90;;;;;;4994126;28;20037;-88
2021/08/24 09:52:06;;;;;;;9.75;2.28;;;20.90;99.90;;;;;;5009488;28;20045;-88
2021/08/24 09:54:49;;;;;;;5.30;2.45;;;20.90;99.90;;;;;;5033502;28;20056;-89
2021/08/24 09:57:17;;;;;;;12.05;2.72;;;20.90;99.90;;;;;;5046553;28;20118;-92
2021/08/24 09:59:53;;;;;;;10.20;2.20;;;20.90;99.90;;;;;;5047475;28;20059;-91
2021/08/24 10:02:41;;;;;;;4.65;2.17;;;21.00;99.90;;;;;;5044439;28;20131;-95
2021/08/24 10:05:14;;;;;;;6.75;2.50;;;21.00;99.90;;;;;;5013937;28;20041;-90
2021/08/24 10:07:46;;;;;;;2.72;1.80;;;21.10;99.90;;;;;;5046336;28;20041;-90
2021/08/24 10:10:29;;;;;;;5.68;2.25;;;21.20;99.90;;;;;;5063180;28;20045;-89
2021/08/24 10:12:58;;;;;;;2.92;1.90;;;21.20;99.90;;;;;;5029834;28;20053;-89
2021/08/24 10:15:32;;;;;;;1.87;1.37;;;21.30;99.90;;;;;;5028323;28;20293;-89
2021/08/24 10:18:00;;;;;;;4.70;1.65;;;21.50;99.90;;;;;;5044262;28;20080;-87
2021/08/24 10:20:30;;;;;;;1.77;1.13;;;21.50;99.90;;;;;;5057307;28;20053;-88
2021/08/24 10:22:56;;;;;;;3.95;1.33;;;21.60;99.90;;;;;;5061845;28;20049;-88
2021/08/24 10:25:27;;;;;;;2.58;1.20;;;21.70;99.90;;;;;;5029253;28;20042;-91
2021/08/24 10:28:19;;;;;;;5.05;1.45;;;21.70;99.90;;;;;;5058040;28;20046;-87
2021/08/24 10:30:51;;;;;;;2.97;1.20;;;21.70;99.90;;;;;;5025984;28;20060;-88
2021/08/24 10:33:58;;;;;;;4.07;1.58;;;21.70;99.90;;;;;;5044188;28;20045;-88
2021/08/24 10:36:33;;;;;;;1.80;1.23;;;21.70;99.90;;;;;;5025961;28;20068;-90
2021/08/24 10:39:22;;;;;;;1.55;1.48;;;21.70;99.90;;;;;;5044699;28;20044;-89
2021/08/24 10:42:17;;;;;;;1.60;1.50;;;21.80;99.90;;;;;;5033622;28;20445;-89
2021/08/24 10:44:50;;;;;;;1.95;1.35;;;21.80;99.90;;;;;;5042275;28;20060;-88
2021/08/24 10:47:52;;;;;;;1.20;1.10;;;21.90;99.90;;;;;;5045062;28;20096;-87
2021/08/24 10:50:40;;;;;;;1.40;1.30;;;22.00;99.90;;;;;;5043558;28;20777;-88
2021/08/24 10:53:32;;;;;;;1.27;1.17;;;22.00;99.90;;;;;;5028279;28;20049;-88
2021/08/24 10:56:34;;;;;;;1.17;1.13;;;22.00;99.90;;;;;;5027531;28;20737;-87
2021/08/24 10:59:18;;;;;;;1.70;1.52;;;22.00;98.20;;;;;;5018353;28;20077;-89
2021/08/24 11:01:54;;;;;;;1.60;1.50;;;22.00;98.90;;;;;;5060947;28;20589;-88
2021/08/24 11:04:26;;;;;;;4.75;1.75;;;22.00;99.90;;;;;;5028102;28;20049;-88
2021/08/24 11:06:58;;;;;;;1.67;1.25;;;22.00;99.10;;;;;;5057646;28;20127;-88
2021/08/24 11:09:42;;;;;;;1.52;1.35;;;22.10;99.90;;;;;;5044358;28;20041;-91
2021/08/24 11:12:35;;;;;;;1.95;1.35;;;22.10;99.90;;;;;;5045404;28;20400;-89
2021/08/24 11:15:51;;;;;;;4.03;1.67;;;22.20;99.50;;;;;;5029772;28;20053;-88
2021/08/24 11:18:29;;;;;;;2.35;1.63;;;22.20;99.10;;;;;;5015418;28;20497;-89
2021/08/24 11:21:13;;;;;;;3.83;1.52;;;22.30;99.90;;;;;;5061068;28;20057;-89
2021/08/24 11:23:47;;;;;;;6.57;1.65;;;22.30;99.90;;;;;;5065393;28;20045;-89
2021/08/24 11:26:26;;;;;;;1.85;1.40;;;22.10;99.30;;;;;;5016072;28;20128;-89
2021/08/24 11:29:20;;;;;;;;;;;22.00;99.90;;;;;;5032654;28;20034;-89
2021/08/24 11:31:52;;;;;;;4.88;1.80;;;21.80;99.90;;;;;;5036509;28;20451;-89
2021/08/24 11:34:28;;;;;;;3.00;1.60;;;21.60;99.90;;;;;;5032476;28;20073;-91
2021/08/24 11:37:04;;;;;;;5.65;1.83;;;21.40;99.90;;;;;;5035611;28;20045;-89
2021/08/24 11:39:45;;;;;;;2.28;1.55;;;21.30;99.90;;;;;;5052999;28;20084;-92
2021/08/24 11:42:38;;;;;;;1.65;1.40;;;21.20;99.90;;;;;;5062879;28;20049;-90
2021/08/24 11:45:09;;;;;;;4.43;2.33;;;21.00;99.90;;;;;;5010191;28;20060;-90
2021/08/24 11:47:45;;;;;;;1.83;1.55;;;20.90;99.90;;;;;;5056465;28;20061;-89
2021/08/24 11:50:23;;;;;;;2.50;1.42;;;20.90;99.90;;;;;;5031449;28;20091;-89
2021/08/24 11:52:49;;;;;;;2.45;1.80;;;20.80;99.90;;;;;;5032175;28;20049;-89
2021/08/24 11:55:27;;;;;;;3.70;2.00;;;20.70;99.90;;;;;;5031233;28;20052;-87
2021/08/24 11:58:03;;;;;;;4.50;2.03;;;20.70;99.90;;;;;;5048554;28;20135;-89
2021/08/24 12:00:30;;;;;;;5.22;1.90;;;20.60;99.90;;;;;;5031340;28;20459;-90
2021/08/24 12:02:57;;;;;;;2.30;1.60;;;20.50;99.90;;;;;;5048330;28;20050;-88
2021/08/24 12:05:40;;;;;;;2.70;1.75;;;20.50;99.90;;;;;;5051677;28;20053;-89
2021/08/24 12:08:13;;;;;;;3.58;1.50;;;20.40;99.90;;;;;;5058727;28;20073;-90
2021/08/24 12:10:51;;;;;;;2.92;1.48;;;20.50;99.90;;;;;;5046816;28;20374;-88
2021/08/24 12:13:31;;;;;;;2.95;1.80;;;20.70;99.90;;;;;;5065332;28;20534;-88
2021/08/24 12:16:30;;;;;;;;;;;20.70;99.90;;;;;;5048397;28;20140;-88
2021/08/24 12:19:08;;;;;;;3.55;1.60;;;20.80;99.90;;;;;;4995584;28;20018;-89
2021/08/24 12:21:39;;;;;;;4.00;1.73;;;21.00;99.90;;;;;;5034666;28;20057;-92
2021/08/24 12:24:23;;;;;;;2.30;1.50;;;21.10;99.90;;;;;;5059855;28;20050;-90
2021/08/24 12:26:51;;;;;;;7.93;2.00;;;21.10;99.90;;;;;;5018857;28;20068;-88
2021/08/24 12:29:32;;;;;;;7.82;2.78;;;21.00;99.90;;;;;;5030953;28;20037;-90
2021/08/24 12:32:00;;;;;;;4.53;2.03;;;21.00;99.90;;;;;;5025310;28;20053;-89
2021/08/24 12:34:35;;;;;;;3.00;1.60;;;21.00;99.90;;;;;;5064677;28;20045;-89
2021/08/24 12:37:17;;;;;;;3.67;1.70;;;21.10;99.90;;;;;;5065509;28;20481;-89
2021/08/24 12:39:45;;;;;;;5.30;1.60;;;21.70;99.90;;;;;;5047716;28;20045;-91
2021/08/24 12:42:21;;;;;;;3.65;2.03;;;21.70;99.90;;;;;;5031690;28;20056;-89
2021/08/24 12:44:58;;;;;;;3.00;1.63;;;22.10;99.90;;;;;;5011649;28;20067;-90
2021/08/24 12:47:30;;;;;;;1.77;1.67;;;21.80;99.90;;;;;;5053790;28;20053;-89
2021/08/24 12:49:56;;;;;;;5.63;1.98;;;21.60;99.90;;;;;;5051989;28;20601;-89
2021/08/24 12:52:28;;;;;;;2.33;1.50;;;21.70;99.90;;;;;;5031338;28;20160;-90
2021/08/24 12:55:04;;;;;;;8.30;1.85;;;21.60;99.90;;;;;;5045940;28;20062;-89
2021/08/24 12:57:47;;;;;;;7.75;1.88;;;21.90;99.90;;;;;;5036079;28;20076;-89
2021/08/24 13:00:35;;;;;;;4.97;2.00;;;21.90;99.90;;;;;;5063179;28;20050;-89
2021/08/24 13:03:01;;;;;;;4.57;2.10;;;21.80;99.90;;;;;;5047119;28;20140;-89
2021/08/24 13:05:31;;;;;;;3.55;1.73;;;21.80;99.90;;;;;;5049959;28;20452;-89
2021/08/24 13:07:56;;;;;;;2.75;1.75;;;21.50;99.90;;;;;;5013433;28;20049;-89
2021/08/24 13:10:36;;;;;;;13.65;2.63;;;21.20;99.90;;;;;;5045245;28;20056;-89
2021/08/24 13:13:23;;;;;;;2.95;2.30;;;21.30;99.90;;;;;;5029552;28;20071;-89